Time;durP1;ratioP1;P1;durP2;ratioP2;P2;SDS_P1;SDS_P2;PMS_P1;PMS_P2;Temp;Humidity;BMP_temperature;BMP_pressure;BME280_temperature;BME280_humidity;BME280_pressure;Samples;Min_cycle;Max_cycle;Signal;HPM_P1;HPM_P2
2022/04/21 03:55:27;;;;;;;6.33;4.83;;;6.00;99.90;;;;;;4999501;28;20255;-60
2022/04/21 03:57:54;;;;;;;6.13;4.90;;;6.00;99.90;;;;;;4975871;28;20259;-61
2022/04/21 04:00:21;;;;;;;9.57;5.00;;;5.90;99.90;;;;;;5000316;28;20208;-61
2022/04/21 04:02:49;;;;;;;8.23;4.97;;;5.90;99.90;;;;;;4998369;28;21592;-61
2022/04/21 04:05:17;;;;;;;7.23;4.90;;;5.90;99.90;;;;;;4998673;28;20218;-60
2022/04/21 04:13:16;;;;;;;7.37;5.17;;;5.90;99.90;;;;;;4981790;28;21019;-60
2022/04/21 04:15:47;;;;;;;13.47;5.50;;;5.90;99.90;;;;;;5019410;28;20554;-61
2022/04/21 04:18:14;;;;;;;6.30;4.87;;;5.90;99.90;;;;;;5000590;28;20222;-61
2022/04/21 04:20:43;;;;;;;6.20;5.00;;;5.90;99.90;;;;;;4993657;28;20759;-61
2022/04/21 04:23:11;;;;;;;7.40;4.73;;;5.80;99.90;;;;;;5016093;28;20213;-60
2022/04/21 04:25:39;;;;;;;11.03;5.20;;;5.80;99.90;;;;;;5004487;28;20203;-61
2022/04/21 04:28:07;;;;;;;6.80;4.67;;;5.80;99.90;;;;;;4981949;28;20226;-61
2022/04/21 04:30:34;;;;;;;7.30;4.80;;;5.70;99.90;;;;;;5003521;28;20231;-61
2022/04/21 04:33:01;;;;;;;5.93;4.57;;;5.70;99.90;;;;;;5015148;28;20277;-61
2022/04/21 04:35:29;;;;;;;7.17;4.77;;;5.60;99.90;;;;;;4981016;28;20232;-61
2022/04/21 04:37:56;;;;;;;5.27;4.47;;;5.70;99.90;;;;;;5018098;28;20226;-61
2022/04/21 04:40:23;;;;;;;7.07;5.27;;;5.60;99.90;;;;;;5015864;28;20252;-61
2022/04/21 04:42:52;;;;;;;12.33;5.20;;;5.60;99.90;;;;;;5003737;28;20342;-61
2022/04/21 04:48:06;;;;;;;14.57;5.50;;;5.50;99.90;;;;;;5009446;28;20240;-61
2022/04/21 04:50:33;;;;;;;7.90;5.23;;;5.60;99.90;;;;;;4996594;28;23931;-61
2022/04/21 04:53:01;;;;;;;7.97;4.63;;;5.60;99.90;;;;;;4993925;28;20289;-61
2022/04/21 04:55:30;;;;;;;6.63;5.17;;;5.60;99.90;;;;;;4999148;28;20637;-60
2022/04/21 04:57:58;;;;;;;13.13;5.80;;;5.60;99.90;;;;;;5018462;28;20250;-61
2022/04/21 05:00:28;;;;;;;11.23;5.50;;;5.60;99.90;;;;;;4999161;28;20227;-62
2022/04/21 05:02:56;;;;;;;12.47;5.80;;;5.60;99.90;;;;;;5005415;28;20218;-60
2022/04/21 05:05:23;;;;;;;14.27;5.60;;;5.70;99.90;;;;;;4992102;28;20256;-61
2022/04/21 05:07:50;;;;;;;17.83;5.50;;;5.60;99.90;;;;;;5019355;28;20203;-61
2022/04/21 05:10:19;;;;;;;9.60;5.30;;;5.70;99.90;;;;;;5006877;28;20249;-61
2022/04/21 05:12:46;;;;;;;14.23;5.53;;;5.70;99.90;;;;;;5014004;28;20226;-60
2022/04/21 05:15:15;;;;;;;7.93;5.10;;;5.70;99.90;;;;;;5007406;23;20337;-61
2022/04/21 05:17:42;;;;;;;9.80;5.23;;;5.80;99.90;;;;;;5007120;28;20290;-61
2022/04/21 05:20:11;;;;;;;9.97;5.70;;;5.80;99.90;;;;;;5024600;28;20247;-61
2022/04/21 05:22:39;;;;;;;12.57;5.70;;;5.80;99.90;;;;;;4985459;28;20717;-60
2022/04/21 05:25:11;;;;;;;11.27;4.97;;;5.90;99.90;;;;;;5017867;28;20274;-60
2022/04/21 05:27:38;;;;;;;6.10;4.63;;;5.90;99.90;;;;;;5008974;28;20688;-60
2022/04/21 05:32:55;;;;;;;9.77;6.00;;;6.00;99.90;;;;;;4996783;28;20212;-60
2022/04/21 05:35:22;;;;;;;9.57;5.17;;;6.00;99.90;;;;;;5010810;28;20294;-61
2022/04/21 05:37:50;;;;;;;9.60;5.70;;;6.00;99.90;;;;;;5012112;28;20212;-60
2022/04/21 05:40:18;;;;;;;6.93;4.80;;;6.10;99.90;;;;;;5015682;28;20264;-61
2022/04/21 05:42:50;;;;;;;6.13;4.40;;;6.20;99.90;;;;;;5020420;28;21146;-60
2022/04/21 05:45:18;;;;;;;8.33;5.27;;;6.20;99.90;;;;;;5005383;28;20226;-61
2022/04/21 05:47:45;;;;;;;11.30;5.03;;;6.30;99.90;;;;;;5018504;28;20264;-60
2022/04/21 05:50:16;;;;;;;8.87;5.07;;;6.30;99.90;;;;;;5022729;28;20207;-61
2022/04/21 05:52:45;;;;;;;6.17;4.80;;;6.30;99.90;;;;;;5011375;28;20731;-61
2022/04/21 05:55:16;;;;;;;6.30;4.87;;;6.30;99.90;;;;;;5008054;28;20728;-60
2022/04/21 05:57:44;;;;;;;7.17;4.50;;;6.40;99.90;;;;;;5020800;28;20697;-61
2022/04/21 06:00:12;;;;;;;10.07;5.13;;;6.40;99.90;;;;;;5008335;28;20207;-61
2022/04/21 06:02:39;;;;;;;7.83;4.73;;;6.50;99.90;;;;;;5005393;28;20280;-61
2022/04/21 06:05:07;;;;;;;6.43;4.57;;;6.60;99.90;;;;;;5022879;28;20242;-60
2022/04/21 06:07:35;;;;;;;6.67;5.23;;;6.70;99.90;;;;;;5006876;28;20257;-61
2022/04/21 06:10:02;;;;;;;6.00;4.70;;;6.70;99.90;;;;;;5013699;28;20231;-61
2022/04/21 06:12:29;;;;;;;7.90;4.67;;;6.70;99.90;;;;;;5027750;28;20218;-61
2022/04/21 06:14:56;;;;;;;6.60;4.57;;;6.80;99.90;;;;;;5018396;28;20212;-61
2022/04/21 06:17:25;;;;;;;6.43;4.60;;;6.90;99.90;;;;;;5003690;28;20211;-61
2022/04/21 06:19:51;;;;;;;7.07;4.93;;;6.90;99.90;;;;;;5027323;28;20216;-60
2022/04/21 06:22:19;;;;;;;7.20;4.77;;;7.00;99.90;;;;;;5004382;28;20203;-60
2022/04/21 06:24:47;;;;;;;9.40;4.43;;;7.00;99.90;;;;;;5003003;28;20235;-61
2022/04/21 06:27:14;;;;;;;7.00;4.67;;;7.20;99.90;;;;;;5024470;28;20296;-61
2022/04/21 06:29:41;;;;;;;5.73;4.37;;;7.30;99.90;;;;;;5010269;28;20212;-61
2022/04/21 06:32:09;;;;;;;5.27;4.53;;;7.40;99.90;;;;;;5007882;28;20295;-61
2022/04/21 06:34:36;;;;;;;7.10;4.43;;;7.60;99.90;;;;;;5018168;28;20267;-61
2022/04/21 06:37:03;;;;;;;10.87;4.77;;;7.80;99.90;;;;;;5029567;28;20663;-61
2022/04/21 06:39:30;;;;;;;7.97;4.60;;;7.90;99.90;;;;;;5012010;28;20724;-61
2022/04/21 06:41:58;;;;;;;4.43;4.03;;;8.00;99.90;;;;;;5013331;28;20292;-60
2022/04/21 06:49:55;;;;;;;5.57;3.57;;;8.40;99.90;;;;;;5031037;28;20884;-61
2022/04/21 06:52:25;;;;;;;7.63;4.07;;;8.60;99.90;;;;;;5019183;28;20213;-61
2022/04/21 06:54:52;;;;;;;7.13;4.13;;;8.70;99.90;;;;;;4997019;28;20205;-62
2022/04/21 06:57:22;;;;;;;6.93;3.63;;;8.80;99.90;;;;;;5013472;28;20975;-61
2022/04/21 06:59:48;;;;;;;9.03;3.60;;;8.90;99.90;;;;;;5024960;28;20212;-61
2022/04/21 07:02:16;;;;;;;5.60;3.70;;;8.90;99.90;;;;;;5006506;28;20264;-61
2022/04/21 07:04:43;;;;;;;6.70;3.47;;;8.90;99.90;;;;;;5005977;28;20221;-60
2022/04/21 07:07:10;;;;;;;4.30;3.20;;;9.00;99.90;;;;;;5024596;28;20623;-61
2022/04/21 07:09:37;;;;;;;6.33;3.67;;;9.10;99.90;;;;;;4997262;28;20321;-60
2022/04/21 07:12:05;;;;;;;4.03;3.10;;;9.20;99.90;;;;;;5011948;28;20226;-60
2022/04/21 07:14:33;;;;;;;3.77;2.67;;;9.30;99.90;;;;;;5018371;28;20238;-61
2022/04/21 07:17:00;;;;;;;8.03;3.30;;;9.50;99.90;;;;;;5024658;28;20230;-60
2022/04/21 07:19:27;;;;;;;4.53;3.17;;;9.50;99.90;;;;;;5005495;28;20255;-61
2022/04/21 07:21:54;;;;;;;5.67;2.90;;;9.60;99.90;;;;;;5023863;28;20208;-61
2022/04/21 07:24:21;;;;;;;7.80;3.17;;;9.70;99.90;;;;;;5008327;28;20257;-61
2022/04/21 07:26:48;;;;;;;3.50;2.83;;;9.80;99.90;;;;;;4998910;28;20261;-61
2022/04/21 07:29:15;;;;;;;3.00;2.70;;;9.80;99.90;;;;;;5006525;28;21094;-61
2022/04/21 07:31:44;;;;;;;4.43;2.90;;;9.90;99.90;;;;;;5026147;28;20221;-61
2022/04/21 07:34:11;;;;;;;6.10;2.90;;;10.00;99.90;;;;;;5015535;28;20326;-61
2022/04/21 07:36:38;;;;;;;6.53;3.13;;;10.10;99.90;;;;;;4995524;28;20220;-61
2022/04/21 07:39:05;;;;;;;5.23;4.23;;;10.20;99.90;;;;;;5023197;28;20198;-61
2022/04/21 07:41:32;;;;;;;5.93;2.73;;;10.20;99.90;;;;;;5005987;28;20202;-61
2022/04/21 07:43:59;;;;;;;5.53;2.77;;;10.20;99.90;;;;;;5010798;28;20222;-60
2022/04/21 07:46:26;;;;;;;4.17;2.60;;;10.20;99.90;;;;;;5021727;28;20251;-62
2022/04/21 07:51:39;;;;;;;4.87;2.50;;;10.20;99.90;;;;;;5008128;28;20258;-61
2022/04/21 07:54:05;;;;;;;4.33;3.17;;;10.40;99.90;;;;;;5004696;28;20942;-61
2022/04/21 07:56:32;;;;;;;3.00;2.60;;;10.50;99.90;;;;;;5021032;28;20250;-61
2022/04/21 07:58:59;;;;;;;4.55;2.85;;;10.60;99.90;;;;;;5001216;28;20230;-61
2022/04/21 08:01:26;;;;;;;5.55;2.75;;;10.70;99.90;;;;;;5009019;28;20631;-60
2022/04/21 08:03:55;;;;;;;4.10;2.80;;;10.80;99.90;;;;;;5017333;28;20229;-61
2022/04/21 08:06:22;;;;;;;4.53;2.10;;;10.90;99.90;;;;;;5002822;28;20282;-61
2022/04/21 08:08:49;;;;;;;2.88;2.20;;;10.90;99.90;;;;;;5018730;28;20285;-60
2022/04/21 08:11:16;;;;;;;3.70;2.20;;;11.10;99.90;;;;;;5017614;28;20299;-61
2022/04/21 08:13:43;;;;;;;2.57;2.20;;;11.10;99.90;;;;;;5009730;28;20259;-61
2022/04/21 08:16:10;;;;;;;2.77;2.40;;;11.10;99.90;;;;;;5013715;28;20315;-60
2022/04/21 08:18:37;;;;;;;3.60;2.40;;;11.20;99.90;;;;;;5015354;28;20206;-60
2022/04/21 08:21:07;;;;;;;4.30;2.30;;;11.20;99.90;;;;;;5015475;28;20966;-61
2022/04/21 08:23:37;;;;;;;2.75;2.33;;;11.30;99.90;;;;;;5013767;28;20303;-60
2022/04/21 08:34:19;;;;;;;2.88;2.33;;;11.70;99.90;;;;;;5021862;28;20271;-61
2022/04/21 08:36:47;;;;;;;2.78;2.20;;;11.70;99.90;;;;;;5027299;28;20296;-61
2022/04/21 08:39:14;;;;;;;2.65;2.33;;;11.80;99.90;;;;;;4993129;28;20299;-61
2022/04/21 08:41:47;;;;;;;7.95;2.53;;;11.70;99.90;;;;;;5023775;28;20291;-61
2022/04/21 08:44:19;;;;;;;4.38;2.17;;;11.80;99.90;;;;;;5008401;28;20194;-61
2022/04/21 08:46:48;;;;;;;2.92;2.30;;;11.80;99.90;;;;;;5012769;28;20210;-60
2022/04/21 08:49:18;;;;;;;2.97;2.53;;;11.80;99.90;;;;;;5009494;28;20213;-61
2022/04/21 08:51:48;;;;;;;4.22;2.45;;;11.80;99.90;;;;;;5017313;28;20225;-61
2022/04/21 08:54:17;;;;;;;3.42;2.60;;;11.80;99.90;;;;;;4996629;28;20427;-61
2022/04/21 08:56:44;;;;;;;5.15;2.40;;;11.90;99.90;;;;;;5018150;28;20194;-61
2022/04/21 08:59:11;;;;;;;5.35;2.65;;;11.90;99.90;;;;;;5004514;28;20851;-61
2022/04/21 09:01:38;;;;;;;4.28;2.50;;;12.00;99.90;;;;;;5014500;28;20201;-62
2022/04/21 09:04:05;;;;;;;4.35;2.72;;;12.20;99.90;;;;;;5021127;28;20291;-61
2022/04/21 09:06:37;;;;;;;3.05;2.50;;;12.30;99.90;;;;;;5014544;28;20268;-61
2022/04/21 09:09:17;;;;;;;4.18;2.67;;;12.40;99.90;;;;;;5005960;28;20302;-61
2022/04/21 09:11:45;;;;;;;3.78;2.88;;;12.40;99.90;;;;;;4998307;28;20990;-61
2022/04/21 09:14:16;;;;;;;3.05;2.60;;;12.50;99.90;;;;;;5016162;28;20291;-62
2022/04/21 09:16:43;;;;;;;4.60;2.45;;;12.40;99.90;;;;;;5012593;28;20412;-61
2022/04/21 09:19:10;;;;;;;2.85;2.33;;;12.50;99.90;;;;;;5005029;28;20300;-61
2022/04/21 09:21:38;;;;;;;7.50;2.60;;;12.50;99.90;;;;;;5019691;28;20282;-61
2022/04/21 09:24:22;;;;;;;4.85;2.30;;;12.60;99.90;;;;;;5005911;28;20210;-62
2022/04/21 09:26:50;;;;;;;4.22;2.35;;;12.80;99.90;;;;;;5025337;28;20256;-61
2022/04/21 09:29:24;;;;;;;5.75;2.30;;;12.90;99.90;;;;;;5010458;28;20292;-61
2022/04/21 09:31:56;;;;;;;3.50;2.70;;;12.90;99.90;;;;;;5017388;28;20232;-61
2022/04/21 09:34:23;;;;;;;3.83;2.63;;;12.90;99.90;;;;;;5005435;28;21103;-61
2022/04/21 09:36:50;;;;;;;6.30;2.70;;;12.90;99.90;;;;;;5030109;28;20233;-61
2022/04/21 09:39:17;;;;;;;8.90;2.53;;;12.90;99.90;;;;;;5008045;28;20197;-61
2022/04/21 09:41:52;;;;;;;5.13;2.67;;;13.00;99.90;;;;;;5030081;28;20572;-61
2022/04/21 09:47:05;;;;;;;5.85;2.63;;;12.90;99.90;;;;;;5012285;28;20216;-61
2022/04/21 09:49:36;;;;;;;3.78;2.65;;;13.00;99.90;;;;;;5019777;28;20396;-61
2022/04/21 09:52:03;;;;;;;3.78;2.80;;;13.10;99.90;;;;;;5017289;28;20205;-61
2022/04/21 09:54:31;;;;;;;4.15;2.90;;;13.00;99.90;;;;;;5007419;28;20224;-62
2022/04/21 09:57:00;;;;;;;2.95;2.60;;;12.90;99.90;;;;;;5009458;28;20211;-61
2022/04/21 09:59:27;;;;;;;5.53;2.90;;;13.10;99.90;;;;;;5022945;28;21118;-61
2022/04/21 10:01:54;;;;;;;3.67;2.90;;;13.10;99.90;;;;;;5004752;28;20237;-62
2022/04/21 10:04:23;;;;;;;3.40;2.70;;;13.20;99.90;;;;;;5020700;28;20199;-61
2022/04/21 10:06:50;;;;;;;3.10;2.80;;;13.30;99.90;;;;;;5024482;28;20238;-62
2022/04/21 10:09:17;;;;;;;4.47;2.80;;;13.40;99.90;;;;;;5024803;28;20789;-61
2022/04/21 10:11:44;;;;;;;4.43;2.80;;;13.40;99.90;;;;;;5001864;28;20205;-61
2022/04/21 10:14:15;;;;;;;3.75;2.65;;;13.40;99.90;;;;;;5028739;28;20236;-61
2022/04/21 10:16:43;;;;;;;3.92;3.10;;;13.50;99.90;;;;;;5009876;28;20862;-62
2022/04/21 10:19:11;;;;;;;4.18;2.50;;;13.50;99.90;;;;;;5021618;28;20206;-61
2022/04/21 10:21:42;;;;;;;7.97;3.00;;;13.50;99.90;;;;;;5022393;28;20198;-61
2022/04/21 10:24:10;;;;;;;6.00;3.00;;;13.40;99.90;;;;;;5019942;28;20271;-61
2022/04/21 10:26:40;;;;;;;6.93;3.22;;;13.40;99.90;;;;;;5002935;28;20299;-61
2022/04/21 10:29:15;;;;;;;5.35;2.85;;;13.50;99.90;;;;;;5023254;28;20202;-61
2022/04/21 10:31:51;;;;;;;4.65;3.25;;;13.50;99.90;;;;;;5007483;28;20259;-61
2022/04/21 10:34:31;;;;;;;6.43;3.20;;;13.60;99.90;;;;;;5012021;28;20216;-61
2022/04/21 10:37:15;;;;;;;4.65;3.42;;;13.70;99.90;;;;;;5025284;28;20819;-61
2022/04/21 10:40:04;;;;;;;4.22;2.92;;;13.80;99.90;;;;;;5027650;28;20304;-60
2022/04/21 10:42:31;;;;;;;4.05;3.22;;;13.80;99.90;;;;;;5004884;28;20290;-61
2022/04/21 10:45:13;;;;;;;4.05;3.35;;;13.90;99.90;;;;;;5004936;28;20295;-62
2022/04/21 10:47:42;;;;;;;6.97;3.15;;;13.90;99.90;;;;;;5010515;28;21000;-61
2022/04/21 10:50:14;;;;;;;5.93;3.25;;;14.00;99.90;;;;;;5023335;28;20224;-61
2022/04/21 10:58:54;;;;;;;6.72;3.17;;;14.10;99.90;;;;;;5008644;28;20259;-61
2022/04/21 11:01:28;;;;;;;4.63;2.95;;;14.20;99.90;;;;;;5009347;28;20201;-61
2022/04/21 11:04:26;;;;;;;5.30;2.72;;;14.20;99.90;;;;;;5005725;28;20930;-61
2022/04/21 11:06:56;;;;;;;5.03;3.55;;;14.10;99.90;;;;;;5014714;28;20233;-61
2022/04/21 11:09:44;;;;;;;6.88;2.72;;;14.20;99.90;;;;;;5021132;28;20205;-61
2022/04/21 11:12:14;;;;;;;4.25;3.20;;;14.20;99.90;;;;;;5025033;28;20289;-61
2022/04/21 11:14:41;;;;;;;4.30;2.95;;;14.40;99.90;;;;;;5007345;28;20249;-63
2022/04/21 11:17:10;;;;;;;4.95;3.00;;;14.40;99.90;;;;;;5024070;28;20206;-62
2022/04/21 11:19:44;;;;;;;5.70;2.92;;;14.50;99.90;;;;;;5009838;28;20739;-61
2022/04/21 11:22:12;;;;;;;3.42;2.90;;;14.50;99.90;;;;;;5010980;28;20202;-61
2022/04/21 11:25:04;;;;;;;9.13;3.45;;;14.50;99.90;;;;;;5020301;28;20279;-61
2022/04/21 11:27:34;;;;;;;7.88;3.03;;;14.50;99.90;;;;;;5021581;28;20202;-61
2022/04/21 11:30:09;;;;;;;6.85;2.72;;;14.60;99.90;;;;;;5005279;28;20213;-61
2022/04/21 11:32:38;;;;;;;3.45;3.03;;;14.50;99.90;;;;;;5023934;28;20784;-61
2022/04/21 11:35:09;;;;;;;6.38;2.88;;;14.70;99.90;;;;;;5012066;28;20297;-62
2022/04/21 11:37:54;;;;;;;8.50;3.03;;;14.80;99.90;;;;;;5023892;28;20213;-61
2022/04/21 11:40:28;;;;;;;2.97;2.47;;;14.80;99.90;;;;;;5005371;28;20230;-61
2022/04/21 11:42:56;;;;;;;4.60;2.80;;;14.90;99.90;;;;;;5016270;28;20224;-61
2022/04/21 11:45:25;;;;;;;9.77;2.90;;;15.00;99.90;;;;;;4989841;28;20229;-61
2022/04/21 11:47:55;;;;;;;6.75;2.80;;;15.10;99.90;;;;;;5009568;28;20204;-61
2022/04/21 11:50:23;;;;;;;4.55;3.03;;;15.00;99.90;;;;;;5013893;28;20677;-61
2022/04/21 11:52:54;;;;;;;8.43;2.70;;;15.10;99.90;;;;;;5017754;28;20311;-61
2022/04/21 11:55:26;;;;;;;6.90;3.00;;;15.10;99.90;;;;;;5019954;28;20332;-61
2022/04/21 11:57:53;;;;;;;7.40;2.60;;;15.10;99.90;;;;;;5000882;28;20345;-61
2022/04/21 12:08:35;;;;;;;5.07;2.90;;;15.20;99.90;;;;;;5001759;28;20240;-61
2022/04/21 12:11:03;;;;;;;3.17;2.63;;;15.30;99.90;;;;;;5012576;28;20205;-61
2022/04/21 12:13:30;;;;;;;3.53;2.33;;;15.30;99.90;;;;;;5022307;28;20578;-61
2022/04/21 12:15:57;;;;;;;2.95;2.72;;;15.40;99.90;;;;;;4987058;28;20381;-62
2022/04/21 12:18:25;;;;;;;3.05;2.70;;;15.60;99.90;;;;;;5021856;28;20288;-61
2022/04/21 12:20:53;;;;;;;6.75;2.72;;;15.60;99.90;;;;;;4998941;28;20288;-61
2022/04/21 12:23:24;;;;;;;5.40;2.67;;;15.60;99.90;;;;;;5005035;28;20205;-61
2022/04/21 12:25:51;;;;;;;2.72;2.10;;;15.70;99.90;;;;;;5019132;28;20233;-61
2022/04/21 12:28:19;;;;;;;3.42;2.50;;;15.80;99.90;;;;;;5006057;28;20292;-62
2022/04/21 12:30:46;;;;;;;3.88;2.42;;;16.00;99.90;;;;;;5007050;28;24120;-62
2022/04/21 12:33:13;;;;;;;2.80;2.40;;;15.90;99.90;;;;;;5002689;28;20684;-61
2022/04/21 12:35:46;;;;;;;3.58;2.38;;;16.00;99.90;;;;;;5011090;28;20681;-61
2022/04/21 12:41:02;;;;;;;2.35;2.10;;;16.20;99.90;;;;;;5003000;28;20256;-62
2022/04/21 12:43:30;;;;;;;2.60;2.40;;;16.30;99.90;;;;;;5003603;28;20232;-61
2022/04/21 12:45:58;;;;;;;4.72;2.17;;;16.30;99.90;;;;;;5003131;28;20338;-61
2022/04/21 12:48:27;;;;;;;3.70;2.25;;;16.20;99.90;;;;;;4988332;28;20263;-62
2022/04/21 12:50:57;;;;;;;5.63;2.55;;;16.30;99.90;;;;;;4985429;28;20339;-61
2022/04/21 12:53:30;;;;;;;5.57;2.25;;;16.30;99.90;;;;;;4982050;28;20230;-61
2022/04/21 12:56:09;;;;;;;3.40;2.55;;;16.40;99.90;;;;;;5000342;28;20752;-61
2022/04/21 12:58:37;;;;;;;5.78;2.45;;;16.20;99.90;;;;;;5020748;28;20198;-61
2022/04/21 13:01:05;;;;;;;4.00;2.35;;;16.20;99.90;;;;;;5007139;28;21062;-61
2022/04/21 13:03:33;;;;;;;4.70;2.30;;;16.20;99.90;;;;;;5000831;28;20229;-61
2022/04/21 13:06:01;;;;;;;2.80;2.30;;;16.20;99.90;;;;;;4993646;28;20229;-61
2022/04/21 13:08:29;;;;;;;5.63;2.15;;;16.20;99.90;;;;;;5006196;28;20229;-61
2022/04/21 13:10:58;;;;;;;4.10;2.50;;;16.20;99.90;;;;;;4985562;28;20314;-62
2022/04/21 13:13:27;;;;;;;5.72;2.10;;;16.10;99.90;;;;;;4996310;28;20702;-62
2022/04/21 13:18:29;;;;;;;4.15;2.20;;;16.10;99.90;;;;;;5009426;23;22120;-62
2022/04/21 13:23:42;;;;;;;4.38;2.28;;;16.10;99.90;;;;;;5025009;28;24178;-62
2022/04/21 13:26:09;;;;;;;4.05;2.30;;;16.00;99.90;;;;;;5038022;28;21294;-62
2022/04/21 13:28:36;;;;;;;4.22;2.75;;;16.00;99.90;;;;;;5045710;28;20250;-61
2022/04/21 13:33:49;;;;;;;3.33;2.13;;;15.90;99.90;;;;;;5017790;28;20211;-62
2022/04/21 13:36:17;;;;;;;5.63;1.88;;;15.80;99.90;;;;;;5027379;28;20205;-61
2022/04/21 13:38:46;;;;;;;6.22;2.60;;;15.80;99.90;;;;;;5028682;28;20773;-61
2022/04/21 13:41:13;;;;;;;6.97;1.88;;;15.80;99.90;;;;;;5028511;28;20208;-61
2022/04/21 13:43:40;;;;;;;2.50;1.92;;;15.90;99.90;;;;;;5046489;28;20219;-61
2022/04/21 13:46:07;;;;;;;4.72;2.20;;;15.80;99.90;;;;;;5048082;28;20240;-62
2022/04/21 13:48:34;;;;;;;3.35;2.50;;;15.90;99.90;;;;;;5035849;28;20298;-62
2022/04/21 13:51:04;;;;;;;8.25;2.30;;;15.90;99.90;;;;;;5023198;28;20213;-62
2022/04/21 13:53:31;;;;;;;3.60;2.33;;;15.90;99.90;;;;;;5054634;28;20749;-61
2022/04/21 13:56:06;;;;;;;10.48;2.17;;;16.00;99.90;;;;;;5021705;28;20220;-62
2022/04/21 13:58:33;;;;;;;6.38;2.60;;;15.90;99.90;;;;;;5046583;28;20207;-62
2022/04/21 14:01:00;;;;;;;3.63;1.98;;;15.90;99.90;;;;;;5050677;28;20274;-61
2022/04/21 14:03:28;;;;;;;6.05;2.50;;;15.90;99.90;;;;;;5023090;28;20254;-61
2022/04/21 14:05:57;;;;;;;5.00;2.20;;;15.90;99.90;;;;;;5015291;28;20212;-61
2022/04/21 14:08:26;;;;;;;3.55;2.00;;;15.80;99.90;;;;;;5035177;28;20205;-61
2022/04/21 14:10:54;;;;;;;6.70;2.15;;;15.80;99.90;;;;;;5019552;28;20391;-62
2022/04/21 14:13:23;;;;;;;4.53;2.10;;;15.70;99.90;;;;;;5040391;28;20228;-61
2022/04/21 14:15:52;;;;;;;3.55;2.20;;;15.80;99.90;;;;;;5040630;28;20302;-61
2022/04/21 14:18:21;;;;;;;3.65;2.40;;;15.70;99.90;;;;;;5047261;28;20331;-60
2022/04/21 14:20:52;;;;;;;6.85;2.42;;;15.60;99.90;;;;;;5017886;28;20216;-61
2022/04/21 14:23:19;;;;;;;2.53;2.00;;;15.70;99.90;;;;;;5019990;28;20200;-61
2022/04/21 14:25:48;;;;;;;2.17;1.75;;;15.60;99.90;;;;;;5041523;28;20197;-61
2022/04/21 14:28:15;;;;;;;4.07;2.22;;;15.70;99.90;;;;;;5040144;28;20229;-61
2022/04/21 14:30:44;;;;;;;6.47;2.03;;;15.60;99.90;;;;;;5018760;28;20224;-62
2022/04/21 14:33:11;;;;;;;3.97;2.00;;;15.70;99.90;;;;;;5045767;28;20629;-61
2022/04/21 14:35:38;;;;;;;2.53;2.08;;;15.60;99.90;;;;;;5029545;28;20201;-62
2022/04/21 14:46:21;;;;;;;9.02;2.15;;;15.60;99.90;;;;;;5052614;28;20403;-61
2022/04/21 14:48:48;;;;;;;1.98;1.77;;;15.50;99.90;;;;;;5045371;28;20940;-62
2022/04/21 14:51:14;;;;;;;7.15;2.00;;;15.40;99.90;;;;;;5029192;28;20228;-61
2022/04/21 14:53:44;;;;;;;3.83;1.73;;;15.30;99.90;;;;;;5018282;28;20261;-61
2022/04/21 14:56:11;;;;;;;3.05;1.77;;;15.40;99.90;;;;;;5051610;28;20236;-61
2022/04/21 14:58:38;;;;;;;5.93;1.85;;;15.30;99.90;;;;;;5018301;28;20691;-61
2022/04/21 15:01:05;;;;;;;3.92;1.67;;;15.30;99.90;;;;;;5051543;28;20567;-61
2022/04/21 15:03:36;;;;;;;4.00;1.70;;;15.30;99.90;;;;;;5038456;28;20266;-62
2022/04/21 15:06:09;;;;;;;5.60;2.00;;;15.30;99.90;;;;;;5033766;28;20204;-61
2022/04/21 15:08:36;;;;;;;5.10;1.48;;;15.30;99.90;;;;;;5011076;28;20237;-62
2022/04/21 15:11:04;;;;;;;6.68;1.42;;;15.30;99.90;;;;;;5034387;28;20644;-61
2022/04/21 15:13:32;;;;;;;5.43;1.38;;;15.30;99.90;;;;;;5029090;28;20197;-61
2022/04/21 15:16:00;;;;;;;2.25;1.65;;;15.30;99.90;;;;;;5027279;28;20229;-61
2022/04/21 15:18:27;;;;;;;2.55;1.45;;;15.30;99.90;;;;;;5042226;28;20204;-61
2022/04/21 15:20:57;;;;;;;3.53;1.65;;;15.30;99.90;;;;;;5035673;28;20228;-61
2022/04/21 15:23:24;;;;;;;2.47;1.70;;;15.20;99.90;;;;;;5020054;28;20689;-61
2022/04/21 15:25:53;;;;;;;3.05;1.60;;;15.30;99.90;;;;;;5037897;28;20192;-61
2022/04/21 15:28:21;;;;;;;2.92;1.90;;;15.20;99.90;;;;;;5035019;28;20225;-61
2022/04/21 15:30:48;;;;;;;3.08;1.70;;;15.20;99.90;;;;;;5041078;28;20224;-61
2022/04/21 15:33:16;;;;;;;3.92;1.92;;;15.20;99.90;;;;;;5021406;28;20236;-61
2022/04/21 15:35:44;;;;;;;5.65;1.85;;;15.20;99.90;;;;;;5044927;28;20240;-61
2022/04/21 15:38:17;;;;;;;4.80;1.98;;;15.20;99.90;;;;;;5027370;28;20702;-61
2022/04/21 15:40:45;;;;;;;5.00;2.00;;;15.20;99.90;;;;;;5023662;28;21079;-61
2022/04/21 15:43:13;;;;;;;4.07;2.00;;;15.20;99.90;;;;;;5043607;28;21117;-61
2022/04/21 15:45:43;;;;;;;2.78;1.77;;;15.20;99.90;;;;;;5033518;28;20288;-61
2022/04/21 15:48:11;;;;;;;8.02;2.85;;;15.20;99.90;;;;;;5037605;28;20228;-61
2022/04/21 15:50:39;;;;;;;3.40;1.65;;;15.20;99.90;;;;;;5044692;28;20196;-61
2022/04/21 15:58:51;;;;;;;5.38;1.88;;;15.10;99.90;;;;;;5029545;28;20211;-62
2022/04/21 16:01:20;;;;;;;3.10;1.90;;;15.10;99.90;;;;;;5026810;28;20227;-61
2022/04/21 16:03:48;;;;;;;3.25;1.70;;;15.10;99.90;;;;;;5047545;28;20835;-61
2022/04/21 16:06:15;;;;;;;4.22;1.85;;;15.10;99.90;;;;;;5049536;28;20291;-61
2022/04/21 16:08:44;;;;;;;3.92;1.90;;;15.00;99.90;;;;;;5036771;28;20659;-61
2022/04/21 16:11:13;;;;;;;2.33;1.77;;;15.00;99.90;;;;;;5004639;28;20208;-61
2022/04/21 16:13:40;;;;;;;4.78;2.00;;;15.00;99.90;;;;;;5022056;28;20221;-61
2022/04/21 16:16:07;;;;;;;2.70;2.03;;;15.00;99.90;;;;;;5033987;28;20595;-62
2022/04/21 16:18:34;;;;;;;5.93;2.20;;;14.90;99.90;;;;;;5011029;28;20228;-61
2022/04/21 16:21:02;;;;;;;3.25;1.98;;;14.90;99.90;;;;;;5009281;28;20435;-61
2022/04/21 16:23:29;;;;;;;2.22;1.80;;;14.80;99.90;;;;;;5024826;28;20224;-61
2022/04/21 16:25:56;;;;;;;5.93;2.13;;;14.80;99.90;;;;;;5016875;28;20228;-61
2022/04/21 16:28:25;;;;;;;7.25;2.63;;;14.70;99.90;;;;;;5029054;28;20251;-61
2022/04/21 16:30:52;;;;;;;3.22;2.15;;;14.60;99.90;;;;;;5039959;28;20228;-61
2022/04/21 16:33:20;;;;;;;3.65;2.20;;;14.60;99.90;;;;;;5008565;28;20222;-62
2022/04/21 16:35:47;;;;;;;2.90;1.52;;;14.60;99.90;;;;;;5036893;28;20224;-61
2022/04/21 16:38:14;;;;;;;2.83;1.95;;;14.60;99.90;;;;;;5051777;28;20224;-61
2022/04/21 16:40:41;;;;;;;4.43;2.17;;;14.50;99.90;;;;;;5019281;28;25735;-61
2022/04/21 16:43:08;;;;;;;3.97;2.00;;;14.50;99.90;;;;;;5015551;28;20766;-61
2022/04/21 16:45:37;;;;;;;3.55;2.30;;;14.40;99.90;;;;;;5024089;28;20305;-61
2022/04/21 16:48:04;;;;;;;4.68;2.20;;;14.40;99.90;;;;;;5001326;28;20299;-61
2022/04/21 16:50:32;;;;;;;6.88;2.72;;;14.40;99.90;;;;;;5029426;28;20282;-60
2022/04/21 16:52:59;;;;;;;5.13;2.33;;;14.30;99.90;;;;;;5030470;28;20294;-60
2022/04/21 16:55:26;;;;;;;2.97;2.10;;;14.30;99.90;;;;;;5042229;28;20948;-61
2022/04/21 16:57:53;;;;;;;7.95;2.40;;;14.30;99.90;;;;;;5029353;28;20468;-61
2022/04/21 17:03:04;;;;;;;5.25;2.10;;;14.20;99.90;;;;;;5046720;28;20212;-61
2022/04/21 17:05:31;;;;;;;4.15;2.00;;;14.20;99.90;;;;;;5023524;28;20646;-61
2022/04/21 17:07:59;;;;;;;12.25;2.80;;;14.20;99.90;;;;;;5047652;28;20256;-60
2022/04/21 17:10:26;;;;;;;5.25;2.53;;;14.10;99.90;;;;;;5039415;28;20944;-61
2022/04/21 17:12:53;;;;;;;4.97;2.55;;;14.10;99.90;;;;;;4997516;28;20216;-61
2022/04/21 17:15:20;;;;;;;6.30;2.67;;;14.00;99.90;;;;;;5012866;28;21044;-61
2022/04/21 17:17:48;;;;;;;4.40;2.30;;;14.00;99.90;;;;;;5019849;28;20319;-60
2022/04/21 17:20:16;;;;;;;7.35;4.82;;;13.90;99.90;;;;;;5004521;28;20228;-61
2022/04/21 17:22:44;;;;;;;2.40;2.20;;;13.90;99.90;;;;;;5036731;28;21858;-61
2022/04/21 17:25:11;;;;;;;4.22;2.30;;;13.90;99.90;;;;;;5023447;28;20228;-61
2022/04/21 17:27:39;;;;;;;3.17;2.50;;;13.90;99.90;;;;;;5011807;28;20239;-61
2022/04/21 17:30:08;;;;;;;5.03;2.22;;;13.90;99.90;;;;;;5031316;28;24772;-62
2022/04/21 17:32:36;;;;;;;5.05;2.38;;;13.90;99.90;;;;;;5025292;28;20802;-61
2022/04/21 17:35:05;;;;;;;6.82;2.65;;;13.90;99.90;;;;;;5024566;28;20208;-61
2022/04/21 17:37:34;;;;;;;9.75;2.50;;;13.90;99.90;;;;;;5018608;28;20217;-61
2022/04/21 17:40:02;;;;;;;3.17;2.20;;;13.80;99.90;;;;;;5037290;28;21091;-60
2022/04/21 17:42:28;;;;;;;4.32;2.40;;;13.80;99.90;;;;;;5004762;28;20270;-61
2022/04/21 17:44:56;;;;;;;6.88;2.88;;;13.80;99.90;;;;;;5025286;28;22784;-61
2022/04/21 17:47:23;;;;;;;4.35;2.42;;;13.70;99.90;;;;;;5008905;28;20229;-61
2022/04/21 17:49:53;;;;;;;6.75;2.47;;;13.70;99.90;;;;;;5016276;28;20290;-61
2022/04/21 17:52:23;;;;;;;4.60;2.90;;;13.70;99.90;;;;;;5005536;28;20217;-60
2022/04/21 17:54:52;;;;;;;4.07;2.63;;;13.70;99.90;;;;;;5021723;28;21416;-61
2022/04/21 17:57:20;;;;;;;5.20;2.70;;;13.70;99.90;;;;;;5015647;28;20328;-61
2022/04/21 17:59:48;;;;;;;5.93;2.60;;;13.70;99.90;;;;;;5024494;28;20754;-61
2022/04/21 18:02:16;;;;;;;4.90;2.70;;;13.70;99.90;;;;;;5019909;28;21049;-61